createdAt,value
2023-05-25T00:01:03.115Z,15.29
2023-05-25T00:03:31.654Z,15.32
2023-05-25T00:06:01.623Z,15.44
2023-05-25T00:08:29.664Z,15.35
2023-05-25T00:10:56.455Z,15.32
2023-05-25T00:13:23.504Z,15.32
2023-05-25T00:15:50.536Z,15.32
2023-05-25T00:18:18.476Z,15.38
2023-05-25T00:20:47.459Z,15.24
2023-05-25T00:23:14.653Z,15.24
2023-05-25T00:25:41.495Z,15.20
2023-05-25T00:28:08.402Z,15.14
2023-05-25T00:30:35.008Z,15.16
2023-05-25T00:33:01.930Z,15.20
2023-05-25T00:35:29.211Z,15.19
2023-05-25T00:37:55.959Z,15.18
2023-05-25T00:40:22.861Z,15.24
2023-05-25T00:42:50.690Z,15.22
2023-05-25T00:45:17.527Z,15.22
2023-05-25T00:47:44.758Z,15.23
2023-05-25T00:52:42.132Z,15.15
2023-05-25T00:55:12.071Z,15.01
2023-05-25T00:57:41.548Z,15.01
2023-05-25T01:00:13.415Z,15.10
2023-05-25T01:02:44.244Z,15.20
2023-05-25T01:05:12.468Z,15.25
2023-05-25T01:07:41.417Z,15.18
2023-05-25T01:10:10.059Z,15.11
2023-05-25T01:12:42.211Z,15.01
2023-05-25T01:15:09.806Z,14.84
2023-05-25T01:17:39.288Z,14.81
2023-05-25T01:20:11.386Z,14.88
2023-05-25T01:22:41.764Z,14.89
2023-05-25T01:25:27.712Z,14.88
2023-05-25T01:27:57.370Z,14.92
2023-05-25T01:30:26.372Z,14.89
2023-05-25T01:32:55.066Z,14.93
2023-05-25T01:35:23.291Z,14.95
2023-05-25T01:37:52.392Z,15.03
2023-05-25T01:40:19.305Z,14.95
2023-05-25T01:42:46.179Z,14.88
2023-05-25T01:45:14.438Z,14.81
2023-05-25T01:47:41.283Z,14.86
2023-05-25T01:50:18.500Z,14.86
2023-05-25T01:52:56.004Z,14.87
2023-05-25T01:55:25.360Z,14.87
2023-05-25T01:57:57.913Z,14.87
2023-05-25T02:00:31.860Z,14.86
2023-05-25T02:03:01.280Z,14.86
2023-05-25T02:05:28.132Z,14.89
2023-05-25T02:07:54.858Z,14.96
2023-05-25T02:10:21.620Z,14.93
2023-05-25T02:12:49.551Z,14.93
2023-05-25T02:15:16.825Z,15.00
2023-05-25T02:17:44.583Z,14.99
2023-05-25T02:20:11.968Z,14.89
2023-05-25T02:22:38.807Z,14.84
2023-05-25T02:25:09.033Z,14.83
2023-05-25T02:27:36.377Z,14.88
2023-05-25T02:30:03.315Z,14.90
2023-05-25T02:32:31.499Z,14.89
2023-05-25T02:34:58.287Z,14.82
2023-05-25T02:37:24.997Z,14.69
2023-05-25T02:39:51.938Z,14.60
2023-05-25T02:42:19.683Z,14.65
2023-05-25T02:44:48.391Z,14.66
2023-05-25T02:47:18.940Z,14.63
2023-05-25T02:49:46.015Z,14.62
2023-05-25T02:52:13.032Z,14.65
2023-05-25T02:54:40.147Z,14.60
2023-05-25T02:57:08.804Z,14.54
2023-05-25T02:59:36.131Z,14.50
2023-05-25T03:02:03.350Z,14.32
2023-05-25T03:04:34.300Z,14.34
2023-05-25T03:07:01.826Z,14.27
2023-05-25T03:09:29.027Z,14.37
2023-05-25T03:11:55.963Z,14.39
2023-05-25T03:14:22.684Z,14.52
2023-05-25T03:16:55.820Z,14.48
2023-05-25T03:19:23.905Z,14.47
2023-05-25T03:21:50.597Z,14.57
2023-05-25T03:24:18.934Z,14.64
2023-05-25T03:26:45.737Z,14.62
2023-05-25T03:29:12.560Z,14.65
2023-05-25T03:31:39.382Z,14.82
2023-05-25T03:34:06.982Z,14.77
2023-05-25T03:36:37.405Z,14.88
2023-05-25T03:39:07.271Z,14.87
2023-05-25T03:41:33.949Z,14.83
2023-05-25T03:44:00.634Z,14.82
2023-05-25T03:46:27.614Z,14.77
2023-05-25T03:48:57.268Z,14.71
2023-05-25T03:51:24.057Z,14.70
2023-05-25T03:53:50.950Z,14.72
2023-05-25T03:56:17.571Z,14.73
2023-05-25T03:58:44.283Z,14.74
2023-05-25T04:01:13.701Z,14.76
2023-05-25T04:03:40.712Z,14.74
2023-05-25T04:06:07.524Z,14.74
2023-05-25T04:08:34.483Z,14.86
2023-05-25T04:11:01.125Z,14.85
2023-05-25T04:13:28.358Z,14.85
2023-05-25T04:15:55.866Z,14.81
2023-05-25T04:18:27.073Z,14.74
2023-05-25T04:20:56.839Z,14.73
2023-05-25T04:23:24.047Z,14.72
2023-05-25T04:25:53.654Z,14.76
2023-05-25T04:28:20.607Z,14.76
2023-05-25T04:30:57.314Z,14.86
2023-05-25T04:33:56.818Z,14.92
2023-05-25T04:36:43.085Z,14.58
2023-05-25T04:39:10.942Z,14.40
2023-05-25T04:41:43.606Z,14.31
2023-05-25T04:44:11.254Z,14.33
2023-05-25T04:46:41.433Z,14.29
2023-05-25T04:49:14.503Z,14.33
2023-05-25T04:51:41.316Z,14.37
2023-05-25T04:54:08.817Z,14.40
2023-05-25T04:56:35.847Z,14.45
2023-05-25T04:59:04.423Z,14.49
2023-05-25T05:01:31.781Z,14.37
2023-05-25T05:04:02.038Z,14.37
2023-05-25T05:06:28.869Z,14.40
2023-05-25T05:08:56.334Z,14.42
2023-05-25T05:11:23.716Z,14.38
2023-05-25T05:13:51.297Z,14.51
2023-05-25T05:16:18.073Z,14.56
2023-05-25T05:18:45.057Z,14.56
2023-05-25T05:21:11.882Z,14.58
2023-05-25T05:23:39.312Z,14.56
2023-05-25T05:26:09.399Z,14.62
2023-05-25T05:28:36.124Z,14.63
2023-05-25T05:31:04.757Z,14.70
2023-05-25T05:33:31.696Z,14.54
2023-05-25T05:36:01.266Z,14.66
2023-05-25T05:38:28.149Z,14.66
2023-05-25T05:40:54.836Z,14.71
2023-05-25T05:43:23.181Z,14.75
2023-05-25T05:45:49.951Z,14.82
2023-05-25T05:48:16.732Z,14.71
2023-05-25T05:50:44.332Z,14.75
2023-05-25T05:53:12.667Z,14.76
2023-05-25T05:55:39.694Z,14.80
2023-05-25T05:58:07.175Z,14.93
2023-05-25T06:00:34.226Z,14.95
2023-05-25T06:03:01.370Z,14.88
2023-05-25T06:05:30.121Z,14.93
2023-05-25T06:07:57.869Z,14.79
2023-05-25T06:10:24.862Z,14.82
2023-05-25T06:12:52.466Z,14.78
2023-05-25T06:15:19.315Z,14.78
2023-05-25T06:17:47.786Z,14.73
2023-05-25T06:20:15.758Z,14.71
2023-05-25T06:22:42.982Z,14.69
2023-05-25T06:25:10.737Z,14.66
2023-05-25T06:27:37.976Z,14.66
2023-05-25T06:30:05.787Z,14.62
2023-05-25T06:32:32.754Z,14.70
2023-05-25T06:34:59.507Z,14.69
2023-05-25T06:37:28.018Z,14.82
2023-05-25T06:39:56.927Z,14.71
2023-05-25T06:42:24.329Z,14.80
2023-05-25T06:44:55.557Z,14.57
2023-05-25T06:47:22.444Z,14.63
2023-05-25T06:49:49.856Z,14.49
2023-05-25T06:52:16.633Z,14.50
2023-05-25T06:54:43.302Z,14.48
2023-05-25T06:57:09.983Z,14.53
2023-05-25T06:59:36.744Z,14.46
2023-05-25T07:02:03.577Z,14.48
2023-05-25T07:04:30.376Z,14.53
2023-05-25T07:06:57.142Z,14.58
2023-05-25T07:09:23.846Z,14.51
2023-05-25T07:11:50.620Z,14.49
2023-05-25T07:14:18.315Z,14.50
2023-05-25T07:16:48.224Z,14.46
2023-05-25T07:19:15.026Z,14.56
2023-05-25T07:21:41.797Z,14.59
2023-05-25T07:24:08.605Z,14.53
2023-05-25T07:26:36.334Z,14.48
2023-05-25T07:29:03.264Z,14.52
2023-05-25T07:31:29.985Z,14.55
2023-05-25T07:33:56.729Z,14.59
2023-05-25T07:36:24.984Z,14.63
2023-05-25T07:38:52.714Z,14.70
2023-05-25T07:41:19.540Z,14.70
2023-05-25T07:43:46.195Z,14.78
2023-05-25T07:46:12.904Z,14.90
2023-05-25T07:48:39.677Z,14.89
2023-05-25T07:51:06.342Z,14.87
2023-05-25T07:53:33.153Z,14.90
2023-05-25T07:55:59.813Z,14.89
2023-05-25T07:58:26.571Z,14.89
2023-05-25T08:00:53.236Z,14.97
2023-05-25T08:03:26.127Z,15.07
2023-05-25T08:05:59.116Z,15.12
2023-05-25T08:08:25.844Z,15.12
2023-05-25T08:10:52.568Z,15.17
2023-05-25T08:13:19.325Z,15.21
2023-05-25T08:15:46.354Z,15.26
2023-05-25T08:18:13.142Z,15.32
2023-05-25T08:20:40.217Z,15.32
2023-05-25T08:23:07.082Z,15.27
2023-05-25T08:25:33.778Z,15.27
2023-05-25T08:28:00.550Z,15.16
2023-05-25T08:30:27.442Z,15.27
2023-05-25T08:32:54.145Z,15.26
2023-05-25T08:35:20.986Z,15.40
2023-05-25T08:37:47.799Z,15.42
2023-05-25T08:40:16.686Z,15.52
2023-05-25T08:42:45.113Z,15.55
2023-05-25T08:45:22.510Z,15.57
2023-05-25T08:47:59.036Z,15.67
2023-05-25T08:50:27.324Z,15.76
2023-05-25T08:52:57.101Z,15.85
2023-05-25T08:55:31.159Z,15.89
2023-05-25T08:58:05.638Z,16.03
2023-05-25T09:00:36.446Z,16.08
2023-05-25T09:03:07.858Z,16.26
2023-05-25T09:05:38.021Z,16.31
2023-05-25T09:08:09.304Z,16.22
2023-05-25T09:10:37.595Z,16.13
2023-05-25T09:13:19.763Z,16.12
2023-05-25T09:15:48.752Z,16.11
2023-05-25T09:18:15.519Z,16.17
2023-05-25T09:20:44.348Z,16.13
2023-05-25T09:23:14.517Z,16.03
2023-05-25T09:25:42.014Z,16.08
2023-05-25T09:28:26.156Z,15.93
2023-05-25T09:30:54.739Z,15.95
2023-05-25T09:33:21.682Z,16.05
2023-05-25T09:35:49.005Z,16.07
2023-05-25T09:38:19.317Z,16.17
2023-05-25T09:40:46.516Z,16.28
2023-05-25T09:43:21.981Z,16.40
2023-05-25T09:45:55.985Z,16.43
2023-05-25T09:48:23.143Z,16.60
2023-05-25T09:50:51.164Z,16.77
2023-05-25T09:53:18.446Z,16.94
2023-05-25T09:55:53.809Z,16.86
2023-05-25T09:58:24.968Z,16.93
2023-05-25T10:00:55.357Z,16.98
2023-05-25T10:03:22.510Z,17.07
2023-05-25T10:05:49.921Z,17.28
2023-05-25T10:08:19.847Z,17.34
2023-05-25T10:10:49.881Z,17.53
2023-05-25T10:13:20.956Z,17.54
2023-05-25T10:15:48.858Z,17.60
2023-05-25T10:18:16.819Z,17.54
2023-05-25T10:20:48.802Z,17.52
2023-05-25T10:23:18.551Z,17.48
2023-05-25T10:25:48.747Z,17.52
2023-05-25T10:28:36.907Z,17.58
2023-05-25T10:31:05.221Z,17.52
2023-05-25T10:33:33.270Z,17.53
2023-05-25T10:36:10.118Z,17.50
2023-05-25T10:38:39.888Z,17.59
2023-05-25T10:41:09.618Z,17.66
2023-05-25T10:43:40.444Z,17.66
2023-05-25T10:46:08.278Z,17.75
2023-05-25T10:48:40.068Z,17.81
2023-05-25T10:51:08.983Z,17.84
2023-05-25T10:53:36.728Z,18.02
2023-05-25T10:56:05.520Z,18.07
2023-05-25T10:58:33.012Z,18.01
2023-05-25T11:01:05.853Z,17.98
2023-05-25T11:03:45.047Z,17.89
2023-05-25T11:06:15.920Z,17.85
2023-05-25T11:08:55.677Z,17.97
2023-05-25T11:11:45.300Z,18.28
2023-05-25T11:14:42.210Z,18.54
2023-05-25T11:17:19.028Z,18.70
2023-05-25T11:19:56.367Z,18.76
2023-05-25T11:22:35.445Z,18.98
2023-05-25T11:25:22.920Z,18.96
2023-05-25T11:27:54.296Z,18.85
2023-05-25T11:30:27.921Z,18.89
2023-05-25T11:32:55.089Z,18.88
2023-05-25T11:35:21.950Z,19.13
2023-05-25T11:37:53.638Z,19.12
2023-05-25T11:40:23.049Z,19.00
2023-05-25T11:42:51.228Z,19.10
2023-05-25T11:45:17.875Z,19.00
2023-05-25T11:47:44.639Z,19.03
2023-05-25T11:50:17.810Z,19.14
2023-05-25T11:52:44.766Z,19.16
2023-05-25T11:55:14.906Z,19.21
2023-05-25T11:57:41.917Z,19.24
2023-05-25T12:00:11.407Z,19.26
2023-05-25T12:02:43.516Z,19.33
2023-05-25T12:05:11.870Z,19.51
2023-05-25T12:07:46.695Z,19.52
2023-05-25T12:10:18.675Z,19.61
2023-05-25T12:12:50.209Z,19.72
2023-05-25T12:15:21.898Z,19.80
2023-05-25T12:17:49.454Z,19.76
2023-05-25T12:20:17.693Z,19.80
2023-05-25T12:22:45.754Z,19.82
2023-05-25T12:25:14.176Z,19.88
2023-05-25T12:27:41.304Z,19.98
2023-05-25T12:30:10.514Z,19.87
2023-05-25T12:33:02.624Z,20.10
2023-05-25T12:35:44.158Z,20.25
2023-05-25T12:38:15.092Z,20.19
2023-05-25T12:40:42.582Z,20.17
2023-05-25T12:43:11.760Z,20.28
2023-05-25T12:45:44.974Z,20.33
2023-05-25T12:48:11.965Z,20.46
2023-05-25T12:50:56.755Z,20.29
2023-05-25T12:53:23.637Z,20.45
2023-05-25T12:55:50.294Z,20.44
2023-05-25T12:58:28.459Z,20.53
2023-05-25T13:00:55.153Z,20.48
2023-05-25T13:03:21.913Z,20.57
2023-05-25T13:05:48.739Z,20.66
2023-05-25T13:08:15.751Z,20.65
2023-05-25T13:10:42.966Z,20.68
2023-05-25T13:13:11.901Z,20.80
2023-05-25T13:15:38.783Z,20.83
2023-05-25T13:18:05.543Z,20.88
2023-05-25T13:20:32.841Z,20.95
2023-05-25T13:22:59.811Z,20.84
2023-05-25T13:25:29.874Z,20.96
2023-05-25T13:27:59.799Z,21.02
2023-05-25T13:30:26.975Z,21.11
2023-05-25T13:32:54.063Z,21.09
2023-05-25T13:35:46.361Z,21.12
2023-05-25T13:38:15.162Z,21.17
2023-05-25T13:40:44.101Z,21.19
2023-05-25T13:43:11.106Z,21.27
2023-05-25T13:45:38.414Z,21.20
2023-05-25T13:48:05.146Z,21.24
2023-05-25T13:50:31.955Z,21.38
2023-05-25T13:52:58.604Z,21.38
2023-05-25T13:55:25.357Z,21.42
2023-05-25T13:57:52.464Z,21.44
2023-05-25T14:00:19.390Z,21.52
2023-05-25T14:02:46.076Z,21.59
2023-05-25T14:05:12.908Z,21.65
2023-05-25T14:07:39.832Z,21.60
2023-05-25T14:10:07.841Z,21.66
2023-05-25T14:12:36.593Z,21.61
2023-05-25T14:15:03.561Z,21.73
2023-05-25T14:17:30.299Z,21.76
2023-05-25T14:19:58.575Z,21.84
2023-05-25T14:22:26.904Z,21.81
2023-05-25T14:24:53.650Z,21.91
2023-05-25T14:27:23.157Z,21.97
2023-05-25T14:29:51.346Z,22.02
2023-05-25T14:32:19.149Z,22.07
2023-05-25T14:34:46.162Z,22.14
2023-05-25T14:37:12.943Z,22.21
2023-05-25T14:39:39.665Z,22.16
2023-05-25T14:42:06.584Z,22.25
2023-05-25T14:44:33.269Z,22.31
2023-05-25T14:47:00.023Z,22.34
2023-05-25T14:49:27.773Z,22.37
2023-05-25T14:51:54.643Z,22.47
2023-05-25T14:54:21.400Z,22.50
2023-05-25T14:56:48.361Z,22.50
2023-05-25T14:59:15.168Z,22.49
2023-05-25T15:01:41.881Z,22.55
2023-05-25T15:04:09.157Z,22.60
2023-05-25T15:06:36.866Z,22.60
2023-05-25T15:09:03.831Z,22.61
2023-05-25T15:11:30.523Z,22.60
2023-05-25T15:14:00.627Z,22.70
2023-05-25T15:16:27.522Z,22.71
2023-05-25T15:18:54.428Z,22.80
2023-05-25T15:21:21.118Z,22.87
2023-05-25T15:23:47.936Z,22.89
2023-05-25T15:26:14.782Z,22.88
2023-05-25T15:28:41.413Z,22.90
2023-05-25T15:31:08.168Z,22.93
2023-05-25T15:33:50.013Z,22.99
2023-05-25T15:36:21.927Z,23.06
2023-05-25T15:38:49.364Z,23.09
2023-05-25T15:41:17.429Z,23.10
2023-05-25T15:44:01.457Z,23.12
2023-05-25T15:46:28.458Z,23.16
2023-05-25T15:48:55.559Z,23.15
2023-05-25T15:51:22.306Z,23.18
2023-05-25T15:53:48.984Z,23.19
2023-05-25T15:56:15.784Z,23.16
2023-05-25T15:58:42.499Z,23.28
2023-05-25T16:01:10.623Z,23.20
2023-05-25T16:03:38.524Z,23.20
2023-05-25T16:06:05.472Z,23.26
2023-05-25T16:08:32.116Z,23.31
2023-05-25T16:10:58.762Z,23.34
2023-05-25T16:13:25.524Z,23.37
2023-05-25T16:15:52.510Z,23.33
2023-05-25T16:18:19.176Z,23.27
2023-05-25T16:20:46.192Z,23.33
2023-05-25T16:23:14.641Z,23.32
2023-05-25T16:25:41.309Z,23.34
2023-05-25T16:28:07.944Z,23.28
2023-05-25T16:30:34.677Z,23.32
2023-05-25T16:33:01.457Z,23.33
2023-05-25T16:35:28.183Z,23.26
2023-05-25T16:37:54.784Z,23.21
2023-05-25T16:40:21.487Z,23.23
2023-05-25T16:42:48.266Z,23.10
2023-05-25T16:45:15.336Z,23.06
2023-05-25T16:47:42.078Z,23.02
2023-05-25T16:50:09.126Z,22.96
2023-05-25T16:52:35.823Z,22.93
2023-05-25T16:55:02.736Z,22.92
2023-05-25T16:57:29.570Z,22.83
2023-05-25T16:59:56.432Z,22.82
2023-05-25T17:02:23.185Z,22.86
2023-05-25T17:04:49.992Z,22.85
2023-05-25T17:07:17.724Z,22.81
2023-05-25T17:09:44.471Z,22.79
2023-05-25T17:12:12.256Z,22.81
2023-05-25T17:14:38.942Z,22.72
2023-05-25T17:17:05.817Z,22.58
2023-05-25T17:19:32.601Z,22.50
2023-05-25T17:21:59.267Z,22.37
2023-05-25T17:24:25.966Z,22.23
2023-05-25T17:26:52.671Z,22.25
2023-05-25T17:29:19.476Z,22.19
2023-05-25T17:31:48.515Z,22.21
2023-05-25T17:34:16.370Z,22.18
2023-05-25T17:36:43.287Z,22.25
2023-05-25T17:39:10.052Z,22.23
2023-05-25T17:41:36.789Z,22.18
2023-05-25T17:44:03.544Z,22.25
2023-05-25T17:46:30.324Z,22.25
2023-05-25T17:48:57.348Z,22.20
2023-05-25T17:51:23.991Z,22.09
2023-05-25T17:53:50.651Z,21.90
2023-05-25T17:56:17.322Z,21.74
2023-05-25T17:58:47.439Z,21.59
2023-05-25T18:01:15.287Z,21.47
2023-05-25T18:03:42.474Z,21.36
2023-05-25T18:06:09.218Z,21.36
2023-05-25T18:08:35.876Z,21.28
2023-05-25T18:11:02.637Z,21.16
2023-05-25T18:13:29.288Z,21.06
2023-05-25T18:15:55.986Z,21.02
2023-05-25T18:18:24.871Z,20.89
2023-05-25T18:20:51.726Z,20.77
2023-05-25T18:23:18.440Z,20.79
2023-05-25T18:25:45.827Z,20.78
2023-05-25T18:28:15.236Z,20.77
2023-05-25T18:30:45.858Z,20.72
2023-05-25T18:33:12.762Z,20.61
2023-05-25T18:35:39.809Z,20.44
2023-05-25T18:38:09.357Z,20.27
2023-05-25T18:40:36.017Z,20.15
2023-05-25T18:43:02.786Z,19.97
2023-05-25T18:45:29.429Z,19.88
2023-05-25T18:47:56.166Z,19.77
2023-05-25T18:50:22.806Z,19.56
2023-05-25T18:52:51.537Z,19.55
2023-05-25T18:55:18.912Z,19.54
2023-05-25T18:57:45.632Z,19.56
2023-05-25T19:00:13.042Z,19.59
2023-05-25T19:02:39.868Z,19.64
2023-05-25T19:05:07.201Z,19.73
2023-05-25T19:07:37.756Z,19.76
2023-05-25T19:10:09.035Z,19.69
2023-05-25T19:12:36.097Z,19.62
2023-05-25T19:15:04.060Z,19.64
2023-05-25T19:17:31.296Z,19.76
2023-05-25T19:19:58.283Z,19.83
2023-05-25T19:22:24.893Z,19.74
2023-05-25T19:25:00.387Z,19.53
2023-05-25T19:27:27.978Z,19.39
2023-05-25T19:29:54.592Z,19.27
2023-05-25T19:32:21.432Z,19.14
2023-05-25T19:34:48.161Z,19.09
2023-05-25T19:37:14.938Z,19.01
2023-05-25T19:39:41.653Z,18.97
2023-05-25T19:42:08.534Z,19.02
2023-05-25T19:44:35.368Z,19.12
2023-05-25T19:47:02.132Z,19.15
2023-05-25T19:49:29.288Z,19.24
2023-05-25T19:51:56.176Z,19.30
2023-05-25T19:54:22.802Z,19.31
2023-05-25T19:56:49.767Z,19.31
2023-05-25T19:59:16.636Z,19.33
2023-05-25T20:01:43.738Z,19.39
2023-05-25T20:04:10.650Z,19.43
2023-05-25T20:06:38.613Z,19.36
2023-05-25T20:09:05.259Z,19.34
2023-05-25T20:11:32.026Z,19.35
2023-05-25T20:13:58.668Z,19.27
2023-05-25T20:16:25.897Z,19.19
2023-05-25T20:18:52.719Z,19.10
2023-05-25T20:21:20.186Z,19.03
2023-05-25T20:23:47.144Z,18.89
2023-05-25T20:26:14.119Z,18.73
2023-05-25T20:28:40.931Z,18.70
2023-05-25T20:31:08.883Z,18.63
2023-05-25T20:33:35.653Z,18.57
2023-05-25T20:36:02.334Z,18.56
2023-05-25T20:38:29.125Z,18.55
2023-05-25T20:40:55.883Z,18.60
2023-05-25T20:43:22.573Z,18.70
2023-05-25T20:45:49.322Z,18.75
2023-05-25T20:48:17.216Z,18.80
2023-05-25T20:50:44.015Z,18.87
2023-05-25T20:53:11.332Z,18.92
2023-05-25T20:55:38.209Z,18.91
2023-05-25T20:58:05.243Z,18.90
2023-05-25T21:00:32.014Z,18.91
2023-05-25T21:02:58.853Z,18.84
2023-05-25T21:05:25.653Z,18.83
2023-05-25T21:07:52.488Z,18.84
2023-05-25T21:10:19.363Z,18.81
2023-05-25T21:12:45.976Z,18.74
2023-05-25T21:15:13.031Z,18.75
2023-05-25T21:17:39.701Z,18.73
2023-05-25T21:20:07.005Z,18.79
2023-05-25T21:22:33.843Z,18.69
2023-05-25T21:25:00.605Z,18.65
2023-05-25T21:27:27.216Z,18.62
2023-05-25T21:29:54.730Z,18.66
2023-05-25T21:32:21.617Z,18.67
2023-05-25T21:34:48.364Z,18.66
2023-05-25T21:37:15.025Z,18.62
2023-05-25T21:39:41.889Z,18.64
2023-05-25T21:42:09.674Z,18.53
2023-05-25T21:44:36.362Z,18.42
2023-05-25T21:47:05.044Z,18.36
2023-05-25T21:49:31.774Z,18.40
2023-05-25T21:51:58.496Z,18.40
2023-05-25T21:54:25.344Z,18.35
2023-05-25T21:56:52.037Z,18.29
2023-05-25T21:59:18.796Z,18.26
2023-05-25T22:01:45.658Z,18.17
2023-05-25T22:04:12.353Z,18.29
2023-05-25T22:06:39.013Z,18.26
2023-05-25T22:09:05.954Z,18.24
2023-05-25T22:11:33.723Z,18.18
2023-05-25T22:14:02.877Z,18.08
2023-05-25T22:16:29.594Z,18.06
2023-05-25T22:18:56.302Z,18.13
2023-05-25T22:21:22.973Z,18.12
2023-05-25T22:23:49.855Z,18.05
2023-05-25T22:26:16.470Z,17.99
2023-05-25T22:28:43.177Z,17.97
2023-05-25T22:31:11.477Z,18.02
2023-05-25T22:33:38.498Z,17.94
2023-05-25T22:36:05.435Z,17.87
2023-05-25T22:38:32.266Z,17.83
2023-05-25T22:40:59.009Z,17.76
2023-05-25T22:43:26.991Z,17.80
2023-05-25T22:45:54.187Z,17.78
2023-05-25T22:48:21.487Z,17.62
2023-05-25T22:50:48.123Z,17.65
2023-05-25T22:53:14.944Z,17.66
2023-05-25T22:55:41.640Z,17.64
2023-05-25T22:58:08.393Z,17.61
2023-05-25T23:00:35.074Z,17.62
2023-05-25T23:03:04.157Z,17.60
2023-05-25T23:05:31.197Z,17.57
2023-05-25T23:07:59.502Z,17.50
2023-05-25T23:10:26.578Z,17.50
2023-05-25T23:12:54.680Z,17.53
2023-05-25T23:15:22.449Z,17.59
2023-05-25T23:17:49.431Z,17.60
2023-05-25T23:20:16.186Z,17.54
2023-05-25T23:22:43.136Z,17.49
2023-05-25T23:25:10.095Z,17.46
2023-05-25T23:27:36.816Z,17.51
2023-05-25T23:30:04.071Z,17.42
2023-05-25T23:32:30.901Z,17.48
2023-05-25T23:34:57.536Z,17.50
2023-05-25T23:37:24.286Z,17.50
2023-05-25T23:39:51.200Z,17.42
2023-05-25T23:42:18.673Z,17.30
2023-05-25T23:44:45.772Z,17.29
2023-05-25T23:47:12.942Z,17.35
2023-05-25T23:49:39.575Z,17.33
2023-05-25T23:52:06.733Z,17.30
2023-05-25T23:54:33.366Z,17.28
2023-05-25T23:57:00.051Z,17.20
2023-05-25T23:59:26.673Z,17.19
